Time;durP1;ratioP1;P1;durP2;ratioP2;P2;SDS_P1;SDS_P2;PMS_P1;PMS_P2;Temp;Humidity;BMP_temperature;BMP_pressure;BME280_temperature;BME280_humidity;BME280_pressure;Samples;Min_cycle;Max_cycle;Signal;HPM_P1;HPM_P2
2023/04/04 00:00:28;;;;;;;18.77;11.63;;;;;;;4.72;58.83;102864.72;5051948;28;20112;-42
2023/04/04 00:02:53;;;;;;;19.90;12.20;;;;;;;4.71;58.81;102874.00;5051833;28;20108;-42
2023/04/04 00:05:19;;;;;;;19.02;11.85;;;;;;;4.69;58.56;102866.00;5051949;28;20056;-42
2023/04/04 00:07:46;;;;;;;19.92;11.82;;;;;;;4.66;59.04;102871.91;5049856;28;20037;-41
2023/04/04 00:10:11;;;;;;;18.73;11.27;;;;;;;4.67;58.77;102874.44;5050286;28;20103;-42
2023/04/04 00:12:36;;;;;;;20.70;11.95;;;;;;;4.71;58.66;102880.34;5051796;28;20463;-42
2023/04/04 00:15:02;;;;;;;18.77;11.43;;;;;;;4.73;58.33;102883.69;5051852;28;20048;-42
2023/04/04 00:17:28;;;;;;;20.92;11.48;;;;;;;4.68;58.57;102886.25;5033929;28;20032;-43
2023/04/04 00:19:53;;;;;;;18.83;11.48;;;;;;;4.63;58.63;102884.16;5051782;28;20028;-42
2023/04/04 00:22:18;;;;;;;18.23;10.77;;;;;;;4.60;58.40;102875.50;5051616;28;20411;-42
2023/04/04 00:24:44;;;;;;;19.15;10.82;;;;;;;4.61;58.91;102871.72;5051709;28;20467;-42
2023/04/04 00:27:09;;;;;;;18.27;10.82;;;;;;;4.61;58.92;102868.97;5051490;28;20025;-43
2023/04/04 00:29:36;;;;;;;17.85;10.82;;;;;;;4.63;58.52;102870.44;5051935;28;20048;-42
2023/04/04 00:32:02;;;;;;;16.85;10.43;;;;;;;4.63;58.41;102875.09;5051832;28;20051;-42
2023/04/04 00:34:27;;;;;;;17.98;10.70;;;;;;;4.63;57.97;102875.91;5051076;28;20025;-42
2023/04/04 00:36:53;;;;;;;18.88;11.00;;;;;;;4.60;58.53;102881.81;5051442;28;20116;-43
2023/04/04 00:39:18;;;;;;;18.42;10.93;;;;;;;4.61;58.63;102880.78;5051349;28;20489;-43
2023/04/04 00:41:44;;;;;;;17.85;10.80;;;;;;;4.62;58.15;102878.88;5051538;28;20040;-42
2023/04/04 00:44:10;;;;;;;18.77;11.32;;;;;;;4.60;58.33;102875.50;5051522;28;20025;-43
2023/04/04 00:46:35;;;;;;;18.52;11.32;;;;;;;4.55;58.40;102872.56;5051484;28;20052;-42
2023/04/04 00:49:01;;;;;;;19.92;11.88;;;;;;;4.48;58.22;102876.19;5051560;28;20025;-42
2023/04/04 00:51:26;;;;;;;17.50;10.60;;;;;;;4.47;58.88;102882.72;5051288;28;20508;-42
2023/04/04 00:53:51;;;;;;;18.52;10.80;;;;;;;4.36;58.36;102859.56;5051289;28;20036;-43
2023/04/04 00:56:18;;;;;;;18.23;11.45;;;;;;;4.49;58.60;102877.00;5051194;28;20468;-42
2023/04/04 00:58:43;;;;;;;18.40;11.13;;;;;;;4.50;58.63;102874.06;5051293;28;20025;-43
2023/04/04 01:01:12;;;;;;;17.80;10.80;;;;;;;4.46;58.74;102878.28;5051179;28;20091;-42
2023/04/04 01:03:38;;;;;;;16.77;10.52;;;;;;;4.47;59.10;102873.66;5046816;28;20466;-43
2023/04/04 01:06:05;;;;;;;17.15;10.50;;;;;;;4.46;58.97;102874.72;5051159;28;20146;-42
2023/04/04 01:08:31;;;;;;;18.48;10.60;;;;;;;4.41;59.00;102871.75;5051263;28;20101;-43
2023/04/04 01:10:57;;;;;;;19.40;10.98;;;;;;;4.35;58.86;102867.97;5051250;28;20025;-42
2023/04/04 01:13:22;;;;;;;18.13;10.90;;;;;;;4.29;59.41;102866.09;5050879;28;20029;-44
2023/04/04 01:15:48;;;;;;;18.05;10.85;;;;;;;4.21;59.87;102858.94;5051170;28;20550;-43
2023/04/04 01:18:17;;;;;;;18.13;10.68;;;;;;;4.11;59.98;102847.59;5051129;28;20075;-44
2023/04/04 01:20:59;;;;;;;17.33;10.80;;;;;;;4.13;60.35;102845.47;5050964;28;20032;-43
2023/04/04 01:23:40;;;;;;;17.15;10.55;;;;;;;4.07;60.20;102841.69;5051357;28;20433;-43
2023/04/04 01:26:06;;;;;;;20.65;11.18;;;;;;;4.02;60.48;102845.06;5051061;28;20029;-42
2023/04/04 01:28:32;;;;;;;18.20;10.90;;;;;;;3.97;60.60;102850.34;5051305;28;20626;-42
2023/04/04 01:31:00;;;;;;;17.58;11.88;;;;;;;3.86;60.51;102843.63;5051082;28;20056;-43
2023/04/04 01:33:29;;;;;;;17.73;10.75;;;;;;;3.90;60.11;102852.25;5051224;28;20033;-44
2023/04/04 01:36:06;;;;;;;19.27;11.90;;;;;;;3.88;60.79;102849.72;5051275;28;20090;-43
2023/04/04 01:38:49;;;;;;;18.38;10.70;;;;;;;3.88;60.78;102846.97;5051283;28;20025;-43
2023/04/04 01:41:17;;;;;;;17.57;11.30;;;;;;;3.80;61.06;102843.63;5051165;28;20074;-45
2023/04/04 01:43:45;;;;;;;17.25;11.00;;;;;;;3.83;60.77;102846.78;5051204;28;20032;-43
2023/04/04 01:46:11;;;;;;;18.38;10.93;;;;;;;3.81;61.22;102842.56;5054018;28;20060;-43
2023/04/04 01:48:36;;;;;;;17.33;10.70;;;;;;;3.79;61.23;102850.97;5054987;28;20079;-43
2023/04/04 01:51:02;;;;;;;17.00;10.88;;;;;;;3.80;61.30;102844.44;5054921;28;20059;-43
2023/04/04 01:53:27;;;;;;;18.27;10.98;;;;;;;3.75;61.01;102831.41;5054955;28;20123;-43
2023/04/04 01:55:53;;;;;;;17.70;10.90;;;;;;;3.83;61.20;102837.72;5054819;28;20144;-44
2023/04/04 01:58:19;;;;;;;17.52;10.63;;;;;;;3.74;60.75;102829.72;5054748;28;20500;-43
2023/04/04 02:00:44;;;;;;;16.48;11.00;;;;;;;3.73;61.82;102835.41;5032060;28;20029;-43
2023/04/04 02:03:10;;;;;;;18.27;11.20;;;;;;;3.66;61.69;102832.66;5054687;28;20049;-42
2023/04/04 02:05:35;;;;;;;17.58;11.35;;;;;;;3.64;61.70;102840.25;5054413;28;20482;-42
2023/04/04 02:08:01;;;;;;;17.50;11.00;;;;;;;3.69;61.31;102836.88;5054328;28;20100;-42
2023/04/04 02:10:28;;;;;;;17.98;10.70;;;;;;;3.76;61.84;102851.41;5054195;28;20507;-42
2023/04/04 02:12:54;;;;;;;17.13;10.75;;;;;;;3.74;60.62;102835.19;5054020;28;20025;-42
2023/04/04 02:15:19;;;;;;;18.67;11.80;;;;;;;3.75;61.21;102839.63;5053782;28;20094;-42
2023/04/04 02:17:48;;;;;;;17.80;11.55;;;;;;;3.71;61.63;102838.38;5053978;28;20025;-45
2023/04/04 02:20:13;;;;;;;17.77;11.13;;;;;;;3.76;60.61;102843.22;5053684;28;20036;-44
2023/04/04 02:22:38;;;;;;;20.27;11.43;;;;;;;3.73;61.63;102847.19;5053774;28;20028;-43
2023/04/04 02:25:04;;;;;;;17.00;11.05;;;;;;;3.70;60.83;102852.25;5053764;28;20017;-42
2023/04/04 02:27:30;;;;;;;17.02;11.10;;;;;;;3.73;60.88;102866.34;5053282;28;20029;-42
2023/04/04 02:29:55;;;;;;;16.65;10.73;;;;;;;3.72;61.45;102856.47;5053945;28;20111;-42
2023/04/04 02:32:22;;;;;;;17.02;10.75;;;;;;;3.75;61.01;102863.41;5053848;28;20032;-42
2023/04/04 02:34:47;;;;;;;18.85;10.70;;;;;;;3.74;61.12;102869.94;5053640;28;20025;-43
2023/04/04 02:37:13;;;;;;;17.92;11.25;;;;;;;3.73;62.23;102860.03;5053451;28;20540;-43
2023/04/04 02:39:38;;;;;;;18.75;10.63;;;;;;;3.68;63.06;102857.94;5053374;28;20033;-43
2023/04/04 02:42:04;;;;;;;16.98;10.80;;;;;;;3.70;63.44;102853.09;5053415;28;20033;-43
2023/04/04 02:44:29;;;;;;;18.73;10.82;;;;;;;3.70;62.87;102850.38;5053384;28;20440;-43
2023/04/04 02:46:55;;;;;;;18.48;10.55;;;;;;;3.77;62.22;102849.50;5053333;28;20025;-43
2023/04/04 02:49:20;;;;;;;18.27;11.68;;;;;;;3.71;61.73;102840.25;5053310;28;20104;-41
2023/04/04 02:51:45;;;;;;;17.65;11.00;;;;;;;3.75;62.27;102844.25;5052995;28;20035;-42
2023/04/04 02:54:11;;;;;;;17.08;10.80;;;;;;;3.65;61.69;102854.78;5053092;28;20039;-42
2023/04/04 02:56:37;;;;;;;17.55;10.80;;;;;;;3.62;62.22;102855.19;5049089;28;20060;-41
2023/04/04 02:59:03;;;;;;;19.00;11.27;;;;;;;3.55;62.90;102844.22;5052916;28;20032;-41
2023/04/04 03:01:28;;;;;;;17.10;10.70;;;;;;;3.56;62.05;102849.50;5052995;28;20086;-42
2023/04/04 03:03:54;;;;;;;18.63;10.90;;;;;;;3.51;62.18;102846.56;5053092;28;20451;-42
2023/04/04 03:06:19;;;;;;;16.55;11.07;;;;;;;3.52;61.59;102841.94;5052831;28;20037;-42
2023/04/04 03:08:44;;;;;;;18.50;11.38;;;;;;;3.50;61.68;102839.38;5052756;28;20024;-42
2023/04/04 03:11:10;;;;;;;18.02;11.48;;;;;;;3.47;62.34;102844.44;5052331;28;20028;-42
2023/04/04 03:13:35;;;;;;;17.63;11.43;;;;;;;3.42;61.78;102845.06;5034441;28;20115;-42
2023/04/04 03:16:03;;;;;;;18.15;11.05;;;;;;;3.41;62.33;102848.84;5052378;28;20025;-42
2023/04/04 03:18:28;;;;;;;18.45;11.43;;;;;;;3.44;62.71;102848.44;5052545;28;20402;-42
2023/04/04 03:20:54;;;;;;;19.15;11.65;;;;;;;3.46;62.14;102840.88;5052307;28;20478;-42
2023/04/04 03:23:19;;;;;;;18.63;11.02;;;;;;;3.46;62.26;102840.00;5052461;28;20134;-42
2023/04/04 03:25:45;;;;;;;22.65;11.57;;;;;;;3.49;62.21;102845.06;5052420;28;20025;-42
2023/04/04 03:28:11;;;;;;;18.42;11.20;;;;;;;3.46;61.83;102840.00;5034395;28;20056;-42
2023/04/04 03:30:36;;;;;;;17.15;11.27;;;;;;;3.34;62.06;102839.78;5052485;28;20024;-42
2023/04/04 03:33:06;;;;;;;17.40;11.15;;;;;;;3.34;62.45;102832.44;5052417;28;20024;-44
2023/04/04 03:35:31;;;;;;;18.00;11.15;;;;;;;3.35;61.86;102836.00;5052355;28;20544;-41
2023/04/04 03:38:00;;;;;;;18.77;11.23;;;;;;;3.26;62.61;102827.16;5052183;28;20029;-43
2023/04/04 03:40:26;;;;;;;18.30;11.38;;;;;;;3.22;62.83;102825.91;5051948;28;20114;-42
2023/04/04 03:42:51;;;;;;;19.80;11.45;;;;;;;3.23;62.25;102833.06;5052304;28;20121;-42
2023/04/04 03:45:17;;;;;;;19.20;11.52;;;;;;;3.21;62.92;102827.78;5052018;28;20036;-42
2023/04/04 03:47:42;;;;;;;18.95;11.18;;;;;;;3.21;62.74;102824.22;5052212;28;20037;-42
2023/04/04 03:50:08;;;;;;;19.77;11.38;;;;;;;3.22;63.40;102818.53;5052086;28;20091;-43
2023/04/04 03:52:39;;;;;;;19.50;10.95;;;;;;;3.17;63.51;102812.84;5048169;28;20122;-42
2023/04/04 03:55:06;;;;;;;17.80;10.88;;;;;;;3.20;64.10;102820.66;5052106;28;20087;-43
2023/04/04 03:57:31;;;;;;;18.67;11.88;;;;;;;3.16;63.18;102827.56;5052055;28;20040;-42
2023/04/04 03:59:57;;;;;;;18.55;11.27;;;;;;;3.14;62.92;102817.88;5051829;28;20021;-43
2023/04/04 04:02:23;;;;;;;17.92;11.13;;;;;;;2.97;63.75;102799.13;5051630;28;20079;-42
2023/04/04 04:04:48;;;;;;;18.20;11.32;;;;;;;3.05;63.59;102814.50;5051642;28;20029;-42
2023/04/04 04:07:14;;;;;;;19.67;11.40;;;;;;;3.10;63.59;102825.66;5050991;28;20025;-43
2023/04/04 04:09:39;;;;;;;17.35;10.82;;;;;;;3.09;63.62;102819.34;5033431;28;20072;-43
2023/04/04 04:12:05;;;;;;;18.75;11.18;;;;;;;3.10;63.46;102820.19;5051761;28;20537;-42
2023/04/04 04:14:30;;;;;;;17.83;11.85;;;;;;;3.11;63.13;102822.72;5051514;28;20566;-42
2023/04/04 04:16:55;;;;;;;18.33;11.80;;;;;;;3.09;62.72;102822.06;5051624;28;20033;-42
2023/04/04 04:19:21;;;;;;;17.00;11.43;;;;;;;3.06;63.57;102816.19;5051269;28;20120;-43
2023/04/04 04:21:46;;;;;;;20.08;11.80;;;;;;;3.10;63.81;102820.19;5051458;28;20076;-42
2023/04/04 04:24:12;;;;;;;19.52;11.50;;;;;;;3.06;63.24;102818.91;5051521;28;20028;-42
2023/04/04 04:26:37;;;;;;;20.17;11.13;;;;;;;3.01;62.84;102814.06;5051565;28;20043;-43
2023/04/04 04:29:02;;;;;;;17.67;11.43;;;;;;;2.91;63.50;102811.75;5051383;28;20057;-42
2023/04/04 04:31:28;;;;;;;20.20;11.18;;;;;;;2.88;63.99;102817.63;5051540;28;20107;-42
2023/04/04 04:33:53;;;;;;;20.73;11.57;;;;;;;2.90;64.05;102821.00;5051487;28;20516;-43
2023/04/04 04:36:18;;;;;;;18.25;10.82;;;;;;;2.92;63.49;102816.16;5051455;28;20420;-43
2023/04/04 04:38:43;;;;;;;18.33;11.27;;;;;;;2.93;63.87;102822.47;5051159;28;20033;-42
2023/04/04 04:41:09;;;;;;;19.45;11.40;;;;;;;2.92;63.67;102823.50;5051126;28;20093;-43
2023/04/04 04:43:35;;;;;;;18.48;11.32;;;;;;;2.89;63.86;102818.44;5051644;28;20036;-42
2023/04/04 04:46:01;;;;;;;18.63;11.63;;;;;;;2.92;64.20;102818.03;5051442;28;20094;-42
2023/04/04 04:48:26;;;;;;;17.95;11.38;;;;;;;2.93;63.74;102823.28;5047433;28;20029;-42
2023/04/04 04:50:52;;;;;;;19.80;11.50;;;;;;;2.94;64.23;102822.25;5051261;28;20029;-42
2023/04/04 04:53:17;;;;;;;19.00;11.35;;;;;;;2.96;63.61;102825.63;5051214;28;20028;-42
2023/04/04 04:55:42;;;;;;;21.73;12.18;;;;;;;2.95;64.10;102823.94;5051193;28;20025;-43
2023/04/04 04:58:09;;;;;;;18.65;12.00;;;;;;;2.88;64.41;102836.75;5051271;28;20053;-42
2023/04/04 05:00:36;;;;;;;18.75;12.30;;;;;;;2.81;64.49;102836.72;5051374;28;20033;-41
2023/04/04 05:03:05;;;;;;;19.80;12.48;;;;;;;2.77;64.72;102842.81;5051026;28;20021;-44
2023/04/04 05:05:31;;;;;;;18.58;12.40;;;;;;;2.68;65.31;102823.03;5051579;28;20536;-42
2023/04/04 05:07:56;;;;;;;19.52;12.43;;;;;;;2.77;65.99;102842.81;5051057;28;20066;-42
2023/04/04 05:10:21;;;;;;;19.25;12.10;;;;;;;2.73;65.12;102842.38;5051583;28;20087;-42
2023/04/04 05:12:47;;;;;;;19.30;12.13;;;;;;;2.74;65.36;102838.59;5051417;28;20025;-42
2023/04/04 05:15:12;;;;;;;19.55;12.20;;;;;;;2.75;64.49;102844.88;5051450;28;20032;-42
2023/04/04 05:17:38;;;;;;;19.00;12.30;;;;;;;2.70;65.04;102836.47;5051444;28;20071;-43
2023/04/04 05:20:04;;;;;;;19.05;12.25;;;;;;;2.65;65.17;102848.84;5053641;28;20029;-42
2023/04/04 05:22:30;;;;;;;22.33;13.10;;;;;;;2.64;65.48;102844.44;5054885;28;20033;-42
2023/04/04 05:24:55;;;;;;;20.98;12.18;;;;;;;2.65;65.95;102834.34;5052474;28;20143;-42
2023/04/04 05:27:20;;;;;;;18.35;11.77;;;;;;;2.68;65.69;102841.28;5045487;28;20029;-43
2023/04/04 05:29:47;;;;;;;19.98;12.50;;;;;;;2.68;64.87;102839.41;5040196;28;20029;-42
2023/04/04 05:32:12;;;;;;;19.90;11.75;;;;;;;2.65;65.46;102832.44;5017007;28;20033;-42
2023/04/04 05:34:37;;;;;;;19.00;12.00;;;;;;;2.68;65.44;102838.56;5045097;28;20037;-43
2023/04/04 05:37:03;;;;;;;19.65;12.43;;;;;;;2.69;64.91;102840.25;5054646;28;20025;-43
2023/04/04 05:39:28;;;;;;;18.48;12.23;;;;;;;2.65;65.54;102846.09;5054685;28;20083;-43
2023/04/04 05:41:54;;;;;;;19.88;12.55;;;;;;;2.69;65.57;102852.03;5054602;28;20035;-43
2023/04/04 05:44:19;;;;;;;21.45;12.27;;;;;;;2.69;65.74;102851.19;5050104;28;20048;-42
2023/04/04 05:46:44;;;;;;;20.05;12.43;;;;;;;2.67;66.05;102853.25;5054475;28;20405;-43
2023/04/04 05:49:10;;;;;;;19.20;12.20;;;;;;;2.68;66.05;102857.69;5054312;28;20115;-42
2023/04/04 05:51:35;;;;;;;19.23;11.52;;;;;;;2.65;66.18;102851.56;5054163;28;20021;-42
2023/04/04 05:54:00;;;;;;;20.42;11.60;;;;;;;2.72;66.23;102856.25;5054035;28;20108;-43
2023/04/04 05:56:26;;;;;;;20.80;12.40;;;;;;;2.71;66.98;102865.50;5036264;28;20394;-42
2023/04/04 05:58:51;;;;;;;19.95;12.32;;;;;;;2.71;66.07;102865.50;5054218;28;20074;-42
2023/04/04 06:01:17;;;;;;;21.00;12.48;;;;;;;2.75;66.19;102855.81;5054052;28;20044;-42
2023/04/04 06:03:42;;;;;;;20.85;12.40;;;;;;;2.79;65.80;102857.13;5054087;28;20069;-43
2023/04/04 06:06:08;;;;;;;19.08;12.18;;;;;;;2.75;65.54;102853.09;5053949;28;20049;-43
2023/04/04 06:08:33;;;;;;;17.90;12.38;;;;;;;2.78;65.99;102847.22;5054117;28;20033;-43
2023/04/04 06:10:58;;;;;;;20.35;12.35;;;;;;;2.94;67.07;102856.97;5053893;28;20037;-41
2023/04/04 06:13:24;;;;;;;18.60;12.70;;;;;;;3.08;67.74;102864.16;5054015;28;20029;-41
2023/04/04 06:15:49;;;;;;;20.88;13.00;;;;;;;3.19;67.17;102853.66;5054028;28;20032;-41
2023/04/04 06:18:16;;;;;;;20.75;12.65;;;;;;;3.27;66.82;102872.59;5053830;28;20021;-42
2023/04/04 06:20:41;;;;;;;19.88;12.50;;;;;;;3.31;66.67;102867.59;5053342;28;20043;-42
2023/04/04 06:23:08;;;;;;;19.20;12.07;;;;;;;3.38;65.62;102873.91;5053775;28;20060;-41
2023/04/04 06:25:35;;;;;;;22.73;12.55;;;;;;;3.43;65.72;102866.78;5053735;28;20060;-41
2023/04/04 06:28:00;;;;;;;21.70;13.02;;;;;;;3.55;67.12;102866.97;5053690;28;20119;-42
2023/04/04 06:30:25;;;;;;;20.50;12.50;;;;;;;3.66;67.22;102861.94;5052993;28;20386;-42
2023/04/04 06:32:51;;;;;;;21.75;13.05;;;;;;;3.85;66.36;102869.31;5053586;28;20036;-41
2023/04/04 06:35:16;;;;;;;21.60;12.05;;;;;;;3.99;66.37;102863.81;5052845;28;20025;-41
2023/04/04 06:37:42;;;;;;;20.65;12.82;;;;;;;4.20;66.56;102868.25;5052332;28;20094;-41
2023/04/04 06:40:07;;;;;;;22.15;13.32;;;;;;;4.34;65.02;102878.09;5052203;28;20025;-40
2023/04/04 06:42:33;;;;;;;19.50;13.02;;;;;;;4.39;63.61;102873.91;5052578;28;20051;-43
2023/04/04 06:44:58;;;;;;;19.98;13.38;;;;;;;4.37;62.74;102879.56;5052339;28;20025;-42
2023/04/04 06:47:23;;;;;;;18.70;12.63;;;;;;;4.29;62.05;102880.66;5052472;28;20029;-44
2023/04/04 06:49:49;;;;;;;20.35;12.82;;;;;;;4.29;62.14;102882.53;5051988;28;20037;-41
2023/04/04 06:52:14;;;;;;;20.58;12.88;;;;;;;4.26;61.46;102872.84;5035307;28;20034;-41
2023/04/04 06:54:40;;;;;;;20.40;12.60;;;;;;;4.31;62.32;102884.00;5030931;28;20028;-41
2023/04/04 06:57:05;;;;;;;19.52;12.40;;;;;;;4.25;61.90;102886.78;5030730;28;20025;-44
2023/04/04 06:59:31;;;;;;;21.00;12.65;;;;;;;4.19;62.16;102883.81;5031498;28;20091;-41
2023/04/04 07:01:56;;;;;;;20.38;12.63;;;;;;;4.16;62.35;102886.97;5014002;28;20030;-41
2023/04/04 07:04:22;;;;;;;21.40;13.23;;;;;;;4.19;62.31;102883.00;5013914;28;20124;-42
2023/04/04 07:06:47;;;;;;;21.10;13.15;;;;;;;4.19;61.78;102892.03;5031802;28;20037;-41
2023/04/04 07:09:12;;;;;;;20.25;12.85;;;;;;;4.21;62.25;102886.34;5031751;28;20036;-42
2023/04/04 07:11:38;;;;;;;19.25;13.10;;;;;;;4.29;61.88;102893.50;5031768;28;20095;-42
2023/04/04 07:14:03;;;;;;;18.50;12.52;;;;;;;4.34;61.14;102885.50;5031804;28;20064;-42
2023/04/04 07:16:28;;;;;;;22.58;13.70;;;;;;;4.44;60.69;102896.00;5031784;28;20030;-42
2023/04/04 07:18:54;;;;;;;22.10;13.82;;;;;;;4.51;61.11;102892.19;5031773;28;20479;-42
2023/04/04 07:21:19;;;;;;;19.25;12.95;;;;;;;4.54;60.93;102888.19;5031348;28;20557;-42
2023/04/04 07:23:45;;;;;;;19.80;12.77;;;;;;;4.42;59.92;102870.72;5031779;28;20438;-42
2023/04/04 07:26:10;;;;;;;20.63;13.07;;;;;;;4.53;60.19;102887.31;5031554;28;20116;-42
2023/04/04 07:28:36;;;;;;;19.42;13.40;;;;;;;4.53;60.01;102884.59;5031352;28;20084;-42
2023/04/04 07:31:02;;;;;;;20.92;13.45;;;;;;;4.53;59.52;102881.84;5031156;28;20471;-43
2023/04/04 07:33:27;;;;;;;20.13;12.82;;;;;;;4.59;59.98;102879.31;5031238;28;20033;-42
2023/04/04 07:35:53;;;;;;;18.75;12.85;;;;;;;4.65;60.36;102882.03;5013385;28;20037;-43
2023/04/04 07:38:19;;;;;;;19.27;13.02;;;;;;;4.69;59.18;102879.69;5031514;28;20041;-42
2023/04/04 07:40:44;;;;;;;19.45;13.35;;;;;;;4.73;58.72;102880.94;5031036;28;20029;-43
2023/04/04 07:43:09;;;;;;;19.02;12.95;;;;;;;4.77;57.98;102876.72;5028901;28;20033;-43
2023/04/04 07:45:35;;;;;;;18.65;12.38;;;;;;;4.83;57.93;102875.84;5029827;28;20036;-43
2023/04/04 07:48:00;;;;;;;19.73;13.15;;;;;;;4.86;57.55;102881.94;5030982;28;20029;-43
2023/04/04 07:50:26;;;;;;;19.42;13.40;;;;;;;4.90;57.52;102883.22;5031002;28;20043;-44
2023/04/04 07:52:53;;;;;;;20.10;13.32;;;;;;;4.93;57.34;102880.88;5031056;28;20426;-43
2023/04/04 07:55:19;;;;;;;19.95;13.50;;;;;;;4.94;58.15;102873.47;5031069;28;20057;-42
2023/04/04 07:57:45;;;;;;;19.70;12.88;;;;;;;5.00;57.29;102870.72;5031151;28;20040;-42
2023/04/04 08:00:11;;;;;;;20.42;13.18;;;;;;;5.06;56.88;102876.38;5031131;28;20178;-41
2023/04/04 08:02:37;;;;;;;19.17;12.48;;;;;;;5.08;56.60;102871.50;5031062;28;20041;-41
2023/04/04 08:05:02;;;;;;;19.50;12.70;;;;;;;5.14;56.56;102876.97;5031121;28;20037;-42
2023/04/04 08:07:28;;;;;;;20.35;12.93;;;;;;;5.19;57.29;102880.97;5030845;28;20071;-42
2023/04/04 08:09:53;;;;;;;19.55;12.55;;;;;;;5.26;56.40;102879.84;5029551;28;20030;-42
2023/04/04 08:12:18;;;;;;;18.73;12.27;;;;;;;5.32;55.86;102883.63;5013064;28;20120;-42
2023/04/04 08:14:44;;;;;;;19.80;12.98;;;;;;;5.43;56.17;102893.06;5030773;28;20517;-41
2023/04/04 08:17:09;;;;;;;20.85;13.20;;;;;;;5.52;56.22;102891.75;5030930;28;20479;-42
2023/04/04 08:19:34;;;;;;;18.75;12.25;;;;;;;5.60;55.79;102890.63;5030490;28;20711;-42
2023/04/04 08:22:00;;;;;;;19.25;12.40;;;;;;;5.63;54.82;102892.94;5030768;28;20041;-42
2023/04/04 08:24:25;;;;;;;18.58;12.80;;;;;;;5.61;54.33;102884.91;5030804;28;20025;-43
2023/04/04 08:26:51;;;;;;;19.92;12.25;;;;;;;5.59;54.35;102883.44;5030658;28;20037;-42
2023/04/04 08:29:16;;;;;;;18.88;12.20;;;;;;;5.59;53.63;102872.44;5030350;28;20152;-42
2023/04/04 08:31:42;;;;;;;19.50;11.57;;;;;;;5.68;52.00;102886.75;5030233;28;20079;-42
2023/04/04 08:34:07;;;;;;;21.48;13.00;;;;;;;5.72;52.56;102880.59;5030622;28;20040;-43
2023/04/04 08:36:33;;;;;;;19.83;12.38;;;;;;;5.77;51.99;102889.00;5030579;28;20493;-42
2023/04/04 08:38:59;;;;;;;20.33;11.70;;;;;;;5.75;52.71;102877.41;5030706;28;20036;-42
2023/04/04 08:41:25;;;;;;;18.88;11.43;;;;;;;5.80;50.54;102870.41;5030590;28;20029;-41
2023/04/04 08:43:55;;;;;;;16.65;11.20;;;;;;;5.81;52.09;102870.16;5029339;28;20057;-42
2023/04/04 08:46:24;;;;;;;18.98;11.98;;;;;;;5.89;50.46;102872.66;5030655;28;20095;-42
2023/04/04 08:48:51;;;;;;;17.55;11.00;;;;;;;5.89;49.68;102864.41;5030445;28;20471;-42
2023/04/04 08:51:18;;;;;;;18.48;10.77;;;;;;;5.96;49.66;102850.59;5030619;28;20025;-43
2023/04/04 08:53:44;;;;;;;16.85;11.02;;;;;;;6.06;49.07;102872.09;5030812;28;20048;-41
2023/04/04 08:56:10;;;;;;;17.85;10.60;;;;;;;6.09;48.89;102861.50;5034575;28;20029;-42
2023/04/04 08:58:37;;;;;;;18.38;10.82;;;;;;;6.15;49.71;102862.50;5034535;28;20033;-42
2023/04/04 09:01:04;;;;;;;17.42;10.73;;;;;;;6.17;47.99;102859.53;5034408;28;20108;-42
2023/04/04 09:03:33;;;;;;;16.67;10.88;;;;;;;6.21;48.55;102861.59;5034470;28;20033;-43
2023/04/04 09:05:58;;;;;;;17.25;11.10;;;;;;;6.24;47.88;102852.91;5034602;28;20037;-42
2023/04/04 09:08:24;;;;;;;17.70;10.93;;;;;;;6.30;48.08;102861.28;5034479;28;20450;-42
2023/04/04 09:10:51;;;;;;;16.15;10.50;;;;;;;6.30;47.16;102861.28;5034361;28;20072;-43
2023/04/04 09:13:17;;;;;;;17.00;10.80;;;;;;;6.38;46.88;102870.09;5016692;28;20459;-42
2023/04/04 09:15:56;;;;;;;17.75;11.20;;;;;;;6.42;46.58;102859.47;5034284;28;20031;-41
2023/04/04 09:18:22;;;;;;;16.67;10.50;;;;;;;6.52;48.51;102864.44;5034338;28;20025;-43
2023/04/04 09:20:47;;;;;;;18.27;10.70;;;;;;;6.56;47.26;102866.50;5033855;28;20109;-42
2023/04/04 09:23:18;;;;;;;16.27;10.40;;;;;;;6.59;47.79;102861.59;5034078;28;20458;-44
2023/04/04 09:25:54;;;;;;;17.08;11.00;;;;;;;6.65;48.00;102857.97;5047791;28;20112;-43
2023/04/04 09:28:21;;;;;;;18.92;11.10;;;;;;;6.67;47.47;102861.28;5035611;28;20048;-42
2023/04/04 09:30:48;;;;;;;17.42;10.57;;;;;;;6.67;46.45;102851.16;5053778;28;20549;-42
2023/04/04 09:33:15;;;;;;;14.90;10.27;;;;;;;6.74;48.38;102853.81;5053784;28;20037;-42
2023/04/04 09:35:45;;;;;;;16.80;10.85;;;;;;;6.72;47.14;102845.78;5053621;28;20715;-42
2023/04/04 09:38:10;;;;;;;15.68;10.65;;;;;;;6.82;49.31;102856.25;5053588;28;20170;-42
2023/04/04 09:40:36;;;;;;;16.75;10.82;;;;;;;6.94;49.78;102861.00;5053326;28;20120;-42
2023/04/04 09:43:05;;;;;;;16.98;10.65;;;;;;;7.18;55.47;102860.00;5052434;28;20036;-44
2023/04/04 09:45:34;;;;;;;16.85;10.70;;;;;;;7.25;47.95;102846.16;5053407;28;20035;-43
2023/04/04 09:48:01;;;;;;;16.55;10.38;;;;;;;7.40;50.08;102858.63;5053753;28;20021;-42
2023/04/04 09:50:29;;;;;;;16.77;10.93;;;;;;;7.36;46.85;102846.41;5053615;28;20025;-42
2023/04/04 09:52:57;;;;;;;16.75;10.80;;;;;;;7.36;46.47;102850.00;5053457;28;20041;-43
2023/04/04 09:55:34;;;;;;;19.08;11.00;;;;;;;7.38;49.34;102836.84;5053189;28;20498;-42
2023/04/04 09:58:10;;;;;;;17.25;10.70;;;;;;;7.42;47.48;102850.97;5053480;28;20025;-43
2023/04/04 10:00:41;;;;;;;17.70;11.23;;;;;;;7.39;47.83;102834.91;5035202;28;20027;-43
2023/04/04 10:03:06;;;;;;;23.35;11.63;;;;;;;7.44;46.67;102849.66;5053390;28;20064;-42
2023/04/04 10:05:32;;;;;;;16.90;10.82;;;;;;;7.51;47.06;102848.75;5052144;28;20052;-42
2023/04/04 10:07:58;;;;;;;17.60;10.68;;;;;;;7.66;48.78;102843.59;5053277;28;20029;-43
2023/04/04 10:10:25;;;;;;;16.48;10.40;;;;;;;7.62;45.73;102842.38;5053196;28;20033;-42
2023/04/04 10:12:51;;;;;;;15.75;10.32;;;;;;;7.54;44.30;102840.84;5053236;28;20029;-43
2023/04/04 10:15:17;;;;;;;17.60;10.68;;;;;;;7.52;45.02;102842.13;5053131;28;20021;-44
2023/04/04 10:17:43;;;;;;;19.25;10.57;;;;;;;7.53;44.82;102832.78;5053081;28;20025;-43
2023/04/04 10:20:10;;;;;;;18.38;10.70;;;;;;;7.55;45.14;102839.75;5052725;28;20051;-43
2023/04/04 10:22:36;;;;;;;15.68;10.57;;;;;;;7.65;45.82;102841.91;5052819;28;20370;-43
2023/04/04 10:25:04;;;;;;;17.30;10.93;;;;;;;7.65;44.49;102839.16;5052948;28;20474;-43
2023/04/04 10:27:30;;;;;;;18.15;10.98;;;;;;;7.62;44.40;102825.84;5034768;28;20052;-43
2023/04/04 10:29:56;;;;;;;16.40;10.60;;;;;;;7.69;44.71;102823.00;5052883;28;20685;-43
2023/04/04 10:32:32;;;;;;;18.15;11.27;;;;;;;7.75;45.69;102833.91;5052750;28;20036;-42
2023/04/04 10:35:09;;;;;;;16.58;10.52;;;;;;;7.73;44.79;102825.03;5052678;28;20033;-43
2023/04/04 10:37:57;;;;;;;17.17;11.00;;;;;;;7.80;46.42;102819.41;5052891;28;20112;-42
2023/04/04 10:40:27;;;;;;;15.80;10.48;;;;;;;7.75;43.53;102831.16;5052361;28;20523;-42
2023/04/04 10:42:54;;;;;;;17.83;11.00;;;;;;;7.73;43.75;102821.47;5051133;28;20040;-43
2023/04/04 10:45:20;;;;;;;15.95;10.75;;;;;;;7.77;44.41;102814.38;5052354;28;20033;-43
2023/04/04 10:47:46;;;;;;;16.30;10.85;;;;;;;7.76;44.89;102827.31;5034428;28;20074;-44
2023/04/04 10:50:12;;;;;;;17.02;11.18;;;;;;;7.85;44.05;102821.47;5052481;28;20039;-42
2023/04/04 10:52:43;;;;;;;17.33;10.95;;;;;;;7.88;44.35;102813.53;5052328;28;20028;-42
2023/04/04 10:55:11;;;;;;;17.30;11.13;;;;;;;7.90;44.15;102802.28;5051815;28;20040;-42
2023/04/04 10:57:40;;;;;;;17.88;10.85;;;;;;;7.88;44.52;102796.19;5051624;28;20051;-42
2023/04/04 11:00:08;;;;;;;17.42;10.77;;;;;;;7.76;44.53;102772.22;5052043;28;20025;-42
2023/04/04 11:02:46;;;;;;;19.00;11.07;;;;;;;7.94;44.88;102796.03;5052308;28;20064;-42
2023/04/04 11:05:17;;;;;;;16.02;10.90;;;;;;;7.89;44.21;102798.69;5034119;28;20021;-42
2023/04/04 11:07:44;;;;;;;16.60;10.93;;;;;;;8.00;44.94;102787.91;5052039;28;20120;-42
2023/04/04 11:10:15;;;;;;;18.13;10.77;;;;;;;8.06;43.93;102800.72;5051843;28;20079;-43
2023/04/04 11:12:44;;;;;;;16.60;10.50;;;;;;;8.04;42.40;102791.84;5051786;28;20029;-43